sensor_id;sensor_type;location;lat;lon;timestamp;pressure;altitude;pressure_sealevel;temperature;humidity
64402;BME280;50724;42.376;23.768;2023-03-04T00:00:34;93145.56;;;1.79;100.00
64402;BME280;50724;42.376;23.768;2023-03-04T00:03:34;93137.47;;;1.73;100.00
64402;BME280;50724;42.376;23.768;2023-03-04T00:06:36;93137.91;;;1.67;100.00
64402;BME280;50724;42.376;23.768;2023-03-04T00:09:36;93138.63;;;1.69;100.00
64402;BME280;50724;42.376;23.768;2023-03-04T00:12:37;93144.16;;;1.75;100.00
64402;BME280;50724;42.376;23.768;2023-03-04T00:15:37;93137.59;;;1.82;100.00
64402;BME280;50724;42.376;23.768;2023-03-04T00:18:37;93131.63;;;1.93;100.00
64402;BME280;50724;42.376;23.768;2023-03-04T00:21:38;93121.81;;;1.98;100.00
64402;BME280;50724;42.376;23.768;2023-03-04T00:24:38;93122.97;;;2.05;100.00
64402;BME280;50724;42.376;23.768;2023-03-04T00:27:39;93133.16;;;2.06;100.00
64402;BME280;50724;42.376;23.768;2023-03-04T00:30:39;93132.34;;;1.95;100.00
64402;BME280;50724;42.376;23.768;2023-03-04T00:33:40;93128.81;;;1.85;100.00
64402;BME280;50724;42.376;23.768;2023-03-04T00:36:42;93127.44;;;1.92;100.00
64402;BME280;50724;42.376;23.768;2023-03-04T00:39:43;93133.47;;;1.69;100.00
64402;BME280;50724;42.376;23.768;2023-03-04T00:42:44;93137.25;;;1.76;100.00
64402;BME280;50724;42.376;23.768;2023-03-04T00:45:44;93127.03;;;1.85;100.00
64402;BME280;50724;42.376;23.768;2023-03-04T00:48:46;93121.66;;;1.77;100.00
64402;BME280;50724;42.376;23.768;2023-03-04T00:51:47;93120.47;;;1.81;100.00
64402;BME280;50724;42.376;23.768;2023-03-04T00:54:48;93126.59;;;2.02;100.00
64402;BME280;50724;42.376;23.768;2023-03-04T00:57:48;93113.84;;;2.12;100.00
64402;BME280;50724;42.376;23.768;2023-03-04T01:00:49;93113.00;;;2.12;100.00
64402;BME280;50724;42.376;23.768;2023-03-04T01:03:49;93116.88;;;1.95;100.00
64402;BME280;50724;42.376;23.768;2023-03-04T01:06:49;93114.13;;;1.74;100.00
64402;BME280;50724;42.376;23.768;2023-03-04T01:09:50;93117.56;;;1.86;100.00
64402;BME280;50724;42.376;23.768;2023-03-04T01:12:50;93118.41;;;1.97;100.00
64402;BME280;50724;42.376;23.768;2023-03-04T01:15:50;93112.19;;;1.89;100.00
64402;BME280;50724;42.376;23.768;2023-03-04T01:18:51;93118.59;;;1.83;100.00
64402;BME280;50724;42.376;23.768;2023-03-04T01:21:51;93110.31;;;1.91;100.00
64402;BME280;50724;42.376;23.768;2023-03-04T01:24:52;93104.56;;;1.87;100.00
64402;BME280;50724;42.376;23.768;2023-03-04T01:27:52;93105.47;;;1.75;100.00
64402;BME280;50724;42.376;23.768;2023-03-04T01:30:53;93109.19;;;1.71;100.00
64402;BME280;50724;42.376;23.768;2023-03-04T01:33:53;93108.75;;;1.66;100.00
64402;BME280;50724;42.376;23.768;2023-03-04T01:36:53;93117.06;;;1.70;100.00
64402;BME280;50724;42.376;23.768;2023-03-04T01:39:54;93112.72;;;1.70;100.00
64402;BME280;50724;42.376;23.768;2023-03-04T01:42:54;93108.41;;;1.82;100.00
64402;BME280;50724;42.376;23.768;2023-03-04T01:45:56;93104.78;;;1.84;100.00
64402;BME280;50724;42.376;23.768;2023-03-04T01:48:58;93098.81;;;1.95;100.00
64402;BME280;50724;42.376;23.768;2023-03-04T01:51:58;93096.00;;;2.09;100.00
64402;BME280;50724;42.376;23.768;2023-03-04T01:54:58;93090.50;;;2.02;100.00
64402;BME280;50724;42.376;23.768;2023-03-04T01:57:59;93089.94;;;2.10;100.00
64402;BME280;50724;42.376;23.768;2023-03-04T02:01:00;93090.84;;;2.09;100.00
64402;BME280;50724;42.376;23.768;2023-03-04T02:04:03;93090.63;;;1.90;100.00
64402;BME280;50724;42.376;23.768;2023-03-04T02:07:04;93081.47;;;1.97;100.00
64402;BME280;50724;42.376;23.768;2023-03-04T02:10:05;93078.31;;;1.93;100.00
64402;BME280;50724;42.376;23.768;2023-03-04T02:13:06;93077.25;;;2.07;100.00
64402;BME280;50724;42.376;23.768;2023-03-04T02:16:15;93082.44;;;2.29;100.00
64402;BME280;50724;42.376;23.768;2023-03-04T02:22:32;93084.63;;;2.45;100.00
64402;BME280;50724;42.376;23.768;2023-03-04T02:25:43;93083.44;;;2.49;100.00
64402;BME280;50724;42.376;23.768;2023-03-04T02:28:47;93086.63;;;2.30;100.00
64402;BME280;50724;42.376;23.768;2023-03-04T02:31:50;93084.28;;;2.38;100.00
64402;BME280;50724;42.376;23.768;2023-03-04T02:34:55;93087.22;;;2.45;100.00
64402;BME280;50724;42.376;23.768;2023-03-04T02:37:55;93092.16;;;2.48;100.00
64402;BME280;50724;42.376;23.768;2023-03-04T02:40:56;93088.41;;;2.19;100.00
64402;BME280;50724;42.376;23.768;2023-03-04T02:43:57;93077.84;;;2.11;100.00
64402;BME280;50724;42.376;23.768;2023-03-04T02:46:58;93079.00;;;2.40;100.00
64402;BME280;50724;42.376;23.768;2023-03-04T02:49:58;93079.84;;;2.40;100.00
64402;BME280;50724;42.376;23.768;2023-03-04T02:52:59;93078.31;;;2.38;100.00
64402;BME280;50724;42.376;23.768;2023-03-04T02:55:59;93073.41;;;2.13;100.00
64402;BME280;50724;42.376;23.768;2023-03-04T02:59:00;93077.84;;;1.99;100.00
64402;BME280;50724;42.376;23.768;2023-03-04T03:02:01;93075.16;;;2.01;100.00
64402;BME280;50724;42.376;23.768;2023-03-04T03:05:02;93068.56;;;1.97;100.00
64402;BME280;50724;42.376;23.768;2023-03-04T03:08:02;93080.53;;;1.98;100.00
64402;BME280;50724;42.376;23.768;2023-03-04T03:11:03;93077.00;;;1.88;100.00
64402;BME280;50724;42.376;23.768;2023-03-04T03:14:05;93078.66;;;1.78;100.00
64402;BME280;50724;42.376;23.768;2023-03-04T03:17:06;93071.63;;;1.91;100.00
64402;BME280;50724;42.376;23.768;2023-03-04T03:20:07;93064.03;;;1.89;100.00
64402;BME280;50724;42.376;23.768;2023-03-04T03:23:08;93066.47;;;2.02;100.00
64402;BME280;50724;42.376;23.768;2023-03-04T03:26:08;93065.19;;;2.07;100.00
64402;BME280;50724;42.376;23.768;2023-03-04T03:29:09;93058.63;;;2.15;100.00
64402;BME280;50724;42.376;23.768;2023-03-04T03:32:09;93062.47;;;2.09;100.00
64402;BME280;50724;42.376;23.768;2023-03-04T03:35:10;93066.72;;;2.10;100.00
64402;BME280;50724;42.376;23.768;2023-03-04T03:38:10;93060.72;;;2.09;100.00
64402;BME280;50724;42.376;23.768;2023-03-04T03:41:11;93063.44;;;2.08;100.00
64402;BME280;50724;42.376;23.768;2023-03-04T03:44:11;93071.19;;;2.08;100.00
64402;BME280;50724;42.376;23.768;2023-03-04T03:47:11;93063.91;;;2.13;100.00
64402;BME280;50724;42.376;23.768;2023-03-04T03:50:12;93064.25;;;2.08;100.00
64402;BME280;50724;42.376;23.768;2023-03-04T03:53:13;93064.97;;;2.11;100.00
64402;BME280;50724;42.376;23.768;2023-03-04T03:56:22;93058.97;;;2.10;100.00
64402;BME280;50724;42.376;23.768;2023-03-04T03:59:22;93063.66;;;2.05;100.00
64402;BME280;50724;42.376;23.768;2023-03-04T04:02:23;93060.59;;;1.89;100.00
64402;BME280;50724;42.376;23.768;2023-03-04T04:05:23;93058.59;;;1.59;100.00
64402;BME280;50724;42.376;23.768;2023-03-04T04:08:24;93062.56;;;1.52;100.00
64402;BME280;50724;42.376;23.768;2023-03-04T04:11:24;93055.28;;;1.46;100.00
64402;BME280;50724;42.376;23.768;2023-03-04T04:14:24;93058.66;;;1.35;100.00
64402;BME280;50724;42.376;23.768;2023-03-04T04:17:25;93060.97;;;1.27;100.00
64402;BME280;50724;42.376;23.768;2023-03-04T04:20:25;93066.31;;;1.24;100.00
64402;BME280;50724;42.376;23.768;2023-03-04T04:23:26;93065.09;;;1.06;100.00
64402;BME280;50724;42.376;23.768;2023-03-04T04:26:26;93062.97;;;1.00;100.00
64402;BME280;50724;42.376;23.768;2023-03-04T04:29:27;93066.94;;;0.93;100.00
64402;BME280;50724;42.376;23.768;2023-03-04T04:32:27;93073.19;;;1.13;100.00
64402;BME280;50724;42.376;23.768;2023-03-04T04:35:27;93069.38;;;1.29;100.00
64402;BME280;50724;42.376;23.768;2023-03-04T04:38:28;93077.22;;;1.17;100.00
64402;BME280;50724;42.376;23.768;2023-03-04T04:41:39;93070.91;;;0.97;100.00
64402;BME280;50724;42.376;23.768;2023-03-04T04:44:40;93066.97;;;0.81;100.00
64402;BME280;50724;42.376;23.768;2023-03-04T04:47:40;93065.06;;;0.72;100.00
64402;BME280;50724;42.376;23.768;2023-03-04T04:50:41;93065.22;;;0.81;100.00
64402;BME280;50724;42.376;23.768;2023-03-04T04:53:41;93061.13;;;0.79;100.00
64402;BME280;50724;42.376;23.768;2023-03-04T04:56:42;93065.72;;;0.86;100.00
64402;BME280;50724;42.376;23.768;2023-03-04T04:59:42;93071.97;;;0.95;100.00
64402;BME280;50724;42.376;23.768;2023-03-04T05:02:43;93066.84;;;0.82;100.00
64402;BME280;50724;42.376;23.768;2023-03-04T05:05:43;93070.88;;;0.86;100.00
64402;BME280;50724;42.376;23.768;2023-03-04T05:08:44;93070.78;;;0.99;100.00
64402;BME280;50724;42.376;23.768;2023-03-04T05:11:44;93078.59;;;0.86;100.00
64402;BME280;50724;42.376;23.768;2023-03-04T05:14:44;93079.09;;;0.91;100.00
64402;BME280;50724;42.376;23.768;2023-03-04T05:17:45;93071.38;;;0.91;100.00
64402;BME280;50724;42.376;23.768;2023-03-04T05:20:52;93070.72;;;0.77;100.00
64402;BME280;50724;42.376;23.768;2023-03-04T05:23:53;93070.75;;;0.88;100.00
64402;BME280;50724;42.376;23.768;2023-03-04T05:26:54;93071.63;;;0.99;100.00
64402;BME280;50724;42.376;23.768;2023-03-04T05:29:54;93075.78;;;1.13;100.00
64402;BME280;50724;42.376;23.768;2023-03-04T05:32:58;93068.91;;;1.24;100.00
64402;BME280;50724;42.376;23.768;2023-03-04T05:35:59;93079.59;;;1.31;100.00
64402;BME280;50724;42.376;23.768;2023-03-04T05:38:59;93080.31;;;1.33;100.00
64402;BME280;50724;42.376;23.768;2023-03-04T05:42:00;93075.78;;;1.48;100.00
64402;BME280;50724;42.376;23.768;2023-03-04T05:45:00;93085.66;;;1.65;100.00
64402;BME280;50724;42.376;23.768;2023-03-04T05:48:00;93081.94;;;1.80;100.00
64402;BME280;50724;42.376;23.768;2023-03-04T05:51:02;93066.25;;;1.83;100.00
64402;BME280;50724;42.376;23.768;2023-03-04T05:54:02;93079.50;;;2.00;100.00
64402;BME280;50724;42.376;23.768;2023-03-04T05:57:03;93078.88;;;1.97;100.00
64402;BME280;50724;42.376;23.768;2023-03-04T06:00:05;93075.28;;;2.11;100.00
64402;BME280;50724;42.376;23.768;2023-03-04T06:03:14;93080.22;;;2.25;100.00
64402;BME280;50724;42.376;23.768;2023-03-04T06:06:15;93082.31;;;2.20;100.00
64402;BME280;50724;42.376;23.768;2023-03-04T06:09:15;93085.22;;;2.04;100.00
64402;BME280;50724;42.376;23.768;2023-03-04T06:12:16;93094.38;;;2.19;100.00
64402;BME280;50724;42.376;23.768;2023-03-04T06:15:16;93098.03;;;2.39;100.00
64402;BME280;50724;42.376;23.768;2023-03-04T06:18:17;93096.25;;;2.50;100.00
64402;BME280;50724;42.376;23.768;2023-03-04T06:21:17;93100.34;;;2.64;100.00
64402;BME280;50724;42.376;23.768;2023-03-04T06:24:18;93099.06;;;2.69;100.00
64402;BME280;50724;42.376;23.768;2023-03-04T06:27:18;93105.88;;;2.59;100.00
64402;BME280;50724;42.376;23.768;2023-03-04T06:30:19;93097.53;;;2.56;100.00
64402;BME280;50724;42.376;23.768;2023-03-04T06:33:20;93098.31;;;2.67;100.00
64402;BME280;50724;42.376;23.768;2023-03-04T06:36:20;93107.72;;;2.46;100.00
64402;BME280;50724;42.376;23.768;2023-03-04T06:39:20;93110.91;;;2.50;100.00
64402;BME280;50724;42.376;23.768;2023-03-04T06:42:21;93108.31;;;2.61;100.00
64402;BME280;50724;42.376;23.768;2023-03-04T06:45:21;93104.53;;;2.65;100.00
64402;BME280;50724;42.376;23.768;2023-03-04T06:48:21;93114.06;;;2.75;100.00
64402;BME280;50724;42.376;23.768;2023-03-04T06:51:22;93114.72;;;3.00;100.00
64402;BME280;50724;42.376;23.768;2023-03-04T06:54:22;93113.94;;;3.20;100.00
64402;BME280;50724;42.376;23.768;2023-03-04T06:57:23;93113.53;;;3.35;100.00
64402;BME280;50724;42.376;23.768;2023-03-04T07:00:23;93117.69;;;3.59;100.00
64402;BME280;50724;42.376;23.768;2023-03-04T07:03:24;93127.22;;;3.47;100.00
64402;BME280;50724;42.376;23.768;2023-03-04T07:06:26;93120.06;;;3.51;100.00
64402;BME280;50724;42.376;23.768;2023-03-04T07:09:27;93125.16;;;3.62;100.00
64402;BME280;50724;42.376;23.768;2023-03-04T07:12:27;93126.53;;;3.77;100.00
64402;BME280;50724;42.376;23.768;2023-03-04T07:15:28;93120.22;;;3.90;100.00
64402;BME280;50724;42.376;23.768;2023-03-04T07:18:28;93123.69;;;4.00;100.00
64402;BME280;50724;42.376;23.768;2023-03-04T07:21:29;93120.25;;;4.21;100.00
64402;BME280;50724;42.376;23.768;2023-03-04T07:24:29;93114.56;;;4.27;100.00
64402;BME280;50724;42.376;23.768;2023-03-04T07:27:30;93114.69;;;4.25;100.00
64402;BME280;50724;42.376;23.768;2023-03-04T07:30:30;93113.81;;;4.36;100.00
64402;BME280;50724;42.376;23.768;2023-03-04T07:33:31;93115.16;;;4.40;100.00
64402;BME280;50724;42.376;23.768;2023-03-04T07:36:34;93122.88;;;4.60;100.00
64402;BME280;50724;42.376;23.768;2023-03-04T07:39:34;93118.94;;;4.56;99.93
64402;BME280;50724;42.376;23.768;2023-03-04T07:42:35;93119.13;;;4.74;99.27
64402;BME280;50724;42.376;23.768;2023-03-04T07:45:36;93123.75;;;4.70;96.45
64402;BME280;50724;42.376;23.768;2023-03-04T07:48:36;93115.22;;;4.89;97.16
64402;BME280;50724;42.376;23.768;2023-03-04T07:51:37;93115.94;;;5.10;95.67
64402;BME280;50724;42.376;23.768;2023-03-04T07:54:37;93118.91;;;4.96;95.64
64402;BME280;50724;42.376;23.768;2023-03-04T07:57:38;93110.25;;;5.26;95.63
64402;BME280;50724;42.376;23.768;2023-03-04T08:00:39;93122.97;;;5.48;94.78
64402;BME280;50724;42.376;23.768;2023-03-04T08:03:40;93124.88;;;5.65;94.79
64402;BME280;50724;42.376;23.768;2023-03-04T08:06:41;93120.81;;;5.63;95.06
64402;BME280;50724;42.376;23.768;2023-03-04T08:09:42;93127.50;;;5.55;95.12
64402;BME280;50724;42.376;23.768;2023-03-04T08:12:51;93117.91;;;5.27;97.24
64402;BME280;50724;42.376;23.768;2023-03-04T08:15:55;93124.19;;;5.34;96.33
64402;BME280;50724;42.376;23.768;2023-03-04T08:18:57;93123.19;;;5.16;98.34
64402;BME280;50724;42.376;23.768;2023-03-04T08:21:58;93123.47;;;5.13;98.51
64402;BME280;50724;42.376;23.768;2023-03-04T08:24:59;93119.69;;;5.36;96.09
64402;BME280;50724;42.376;23.768;2023-03-04T08:27:59;93120.88;;;5.23;96.64
64402;BME280;50724;42.376;23.768;2023-03-04T08:30:59;93120.22;;;5.49;96.89
64402;BME280;50724;42.376;23.768;2023-03-04T08:34:02;93120.50;;;5.46;95.03
64402;BME280;50724;42.376;23.768;2023-03-04T08:37:03;93114.50;;;5.75;95.61
64402;BME280;50724;42.376;23.768;2023-03-04T08:40:03;93110.53;;;5.71;94.02
64402;BME280;50724;42.376;23.768;2023-03-04T08:43:04;93117.22;;;5.73;94.05
64402;BME280;50724;42.376;23.768;2023-03-04T08:46:04;93118.06;;;5.83;94.39
64402;BME280;50724;42.376;23.768;2023-03-04T08:49:06;93121.47;;;5.45;94.93
64402;BME280;50724;42.376;23.768;2023-03-04T08:52:06;93122.00;;;5.39;95.71
64402;BME280;50724;42.376;23.768;2023-03-04T08:55:07;93119.38;;;5.30;95.43
64402;BME280;50724;42.376;23.768;2023-03-04T08:58:09;93116.00;;;5.29;94.40
64402;BME280;50724;42.376;23.768;2023-03-04T09:01:11;93120.34;;;5.29;92.67
64402;BME280;50724;42.376;23.768;2023-03-04T09:04:12;93122.28;;;5.46;93.67
64402;BME280;50724;42.376;23.768;2023-03-04T09:07:12;93108.50;;;5.74;92.08
64402;BME280;50724;42.376;23.768;2023-03-04T09:10:13;93111.38;;;5.62;90.53
64402;BME280;50724;42.376;23.768;2023-03-04T09:13:14;93113.69;;;5.45;91.75
64402;BME280;50724;42.376;23.768;2023-03-04T09:16:15;93113.09;;;5.23;90.15
64402;BME280;50724;42.376;23.768;2023-03-04T09:19:16;93108.19;;;5.20;90.83
64402;BME280;50724;42.376;23.768;2023-03-04T09:22:16;93110.50;;;5.13;91.00
64402;BME280;50724;42.376;23.768;2023-03-04T09:25:17;93106.91;;;4.95;91.12
64402;BME280;50724;42.376;23.768;2023-03-04T09:28:18;93115.44;;;5.26;91.84
64402;BME280;50724;42.376;23.768;2023-03-04T09:31:19;93096.47;;;5.54;89.57
64402;BME280;50724;42.376;23.768;2023-03-04T09:34:19;93096.31;;;6.13;88.43
64402;BME280;50724;42.376;23.768;2023-03-04T09:37:29;93101.06;;;6.27;87.87
64402;BME280;50724;42.376;23.768;2023-03-04T09:40:35;93095.78;;;6.56;86.46
64402;BME280;50724;42.376;23.768;2023-03-04T09:43:38;93099.84;;;6.95;85.11
64402;BME280;50724;42.376;23.768;2023-03-04T09:46:40;93095.00;;;7.27;82.99
64402;BME280;50724;42.376;23.768;2023-03-04T09:50:00;93089.34;;;6.87;83.46
64402;BME280;50724;42.376;23.768;2023-03-04T09:56:17;93082.63;;;7.56;80.32
64402;BME280;50724;42.376;23.768;2023-03-04T09:59:34;93069.53;;;7.48;79.39
64402;BME280;50724;42.376;23.768;2023-03-04T10:06:05;93072.19;;;7.74;80.39
64402;BME280;50724;42.376;23.768;2023-03-04T10:09:10;93072.88;;;7.58;79.60
64402;BME280;50724;42.376;23.768;2023-03-04T10:12:15;93070.59;;;7.11;83.18
64402;BME280;50724;42.376;23.768;2023-03-04T10:15:38;93068.19;;;7.62;82.65
64402;BME280;50724;42.376;23.768;2023-03-04T10:18:53;93066.69;;;7.77;81.29
64402;BME280;50724;42.376;23.768;2023-03-04T10:21:55;93064.00;;;7.34;84.04
64402;BME280;50724;42.376;23.768;2023-03-04T10:24:58;93061.69;;;7.84;79.18
64402;BME280;50724;42.376;23.768;2023-03-04T10:28:05;93051.81;;;7.87;79.18
64402;BME280;50724;42.376;23.768;2023-03-04T10:31:19;93057.19;;;7.50;79.45
64402;BME280;50724;42.376;23.768;2023-03-04T10:34:22;93052.63;;;7.00;83.46
64402;BME280;50724;42.376;23.768;2023-03-04T10:37:22;93047.78;;;7.05;82.88
64402;BME280;50724;42.376;23.768;2023-03-04T10:40:24;93047.09;;;7.47;81.04
64402;BME280;50724;42.376;23.768;2023-03-04T10:43:25;93043.59;;;7.21;79.07
64402;BME280;50724;42.376;23.768;2023-03-04T10:46:26;93036.72;;;7.20;79.32
64402;BME280;50724;42.376;23.768;2023-03-04T10:49:27;93039.22;;;7.57;78.68
64402;BME280;50724;42.376;23.768;2023-03-04T10:55:44;93019.66;;;7.79;76.24
64402;BME280;50724;42.376;23.768;2023-03-04T10:58:44;93022.66;;;7.84;76.69
64402;BME280;50724;42.376;23.768;2023-03-04T11:01:45;93020.69;;;7.86;76.47
64402;BME280;50724;42.376;23.768;2023-03-04T11:05:06;93016.94;;;7.80;73.02
64402;BME280;50724;42.376;23.768;2023-03-04T11:08:21;93006.13;;;7.49;73.61
64402;BME280;50724;42.376;23.768;2023-03-04T11:11:45;93011.97;;;7.95;72.44
64402;BME280;50724;42.376;23.768;2023-03-04T11:14:50;93003.75;;;8.07;72.93
64402;BME280;50724;42.376;23.768;2023-03-04T11:17:56;92997.59;;;7.83;74.87
64402;BME280;50724;42.376;23.768;2023-03-04T11:20:59;92992.38;;;7.57;75.87
64402;BME280;50724;42.376;23.768;2023-03-04T11:24:02;92987.50;;;7.62;76.22
64402;BME280;50724;42.376;23.768;2023-03-04T11:27:07;92984.31;;;7.50;76.51
64402;BME280;50724;42.376;23.768;2023-03-04T11:30:55;92983.75;;;7.39;76.38
64402;BME280;50724;42.376;23.768;2023-03-04T11:43:55;92960.84;;;7.42;78.87
64402;BME280;50724;42.376;23.768;2023-03-04T11:56:52;92959.69;;;7.62;78.94
64402;BME280;50724;42.376;23.768;2023-03-04T12:00:12;92954.94;;;7.84;78.71
64402;BME280;50724;42.376;23.768;2023-03-04T12:03:52;92954.63;;;8.12;76.79
64402;BME280;50724;42.376;23.768;2023-03-04T12:20:46;92938.44;;;8.68;74.84
64402;BME280;50724;42.376;23.768;2023-03-04T12:26:54;92931.44;;;8.77;71.57
64402;BME280;50724;42.376;23.768;2023-03-04T12:46:21;92918.41;;;7.93;74.84
64402;BME280;50724;42.376;23.768;2023-03-04T12:56:43;92908.28;;;8.24;71.01
64402;BME280;50724;42.376;23.768;2023-03-04T13:09:42;92894.53;;;8.40;69.94
64402;BME280;50724;42.376;23.768;2023-03-04T13:12:52;92885.91;;;8.39;71.67
64402;BME280;50724;42.376;23.768;2023-03-04T13:16:03;92883.41;;;8.95;70.19
64402;BME280;50724;42.376;23.768;2023-03-04T13:19:43;92887.16;;;8.93;68.87
64402;BME280;50724;42.376;23.768;2023-03-04T13:26:17;92872.06;;;8.47;69.00
64402;BME280;50724;42.376;23.768;2023-03-04T13:32:37;92872.66;;;9.47;66.15
64402;BME280;50724;42.376;23.768;2023-03-04T13:35:56;92867.22;;;9.73;65.24
64402;BME280;50724;42.376;23.768;2023-03-04T13:42:38;92860.84;;;9.75;63.95
64402;BME280;50724;42.376;23.768;2023-03-04T13:45:39;92854.16;;;9.73;64.14
64402;BME280;50724;42.376;23.768;2023-03-04T13:48:39;92855.75;;;9.82;63.88
64402;BME280;50724;42.376;23.768;2023-03-04T13:51:41;92861.13;;;9.80;65.08
64402;BME280;50724;42.376;23.768;2023-03-04T13:54:45;92851.00;;;9.85;63.94
64402;BME280;50724;42.376;23.768;2023-03-04T13:57:49;92848.88;;;9.89;63.56
64402;BME280;50724;42.376;23.768;2023-03-04T14:00:52;92854.16;;;9.73;64.38
64402;BME280;50724;42.376;23.768;2023-03-04T14:03:54;92847.53;;;8.89;65.66
64402;BME280;50724;42.376;23.768;2023-03-04T14:06:56;92845.41;;;9.33;64.17
64402;BME280;50724;42.376;23.768;2023-03-04T14:13:07;92842.66;;;9.98;63.21
64402;BME280;50724;42.376;23.768;2023-03-04T14:16:08;92840.59;;;9.77;60.69
64402;BME280;50724;42.376;23.768;2023-03-04T14:19:14;92831.91;;;9.85;61.34
64402;BME280;50724;42.376;23.768;2023-03-04T14:22:22;92823.22;;;9.37;63.27
64402;BME280;50724;42.376;23.768;2023-03-04T14:25:25;92829.59;;;8.70;67.24
64402;BME280;50724;42.376;23.768;2023-03-04T14:28:26;92824.22;;;8.64;68.67
64402;BME280;50724;42.376;23.768;2023-03-04T14:31:28;92820.00;;;8.79;66.92
64402;BME280;50724;42.376;23.768;2023-03-04T14:34:31;92806.75;;;9.29;66.25
64402;BME280;50724;42.376;23.768;2023-03-04T14:37:42;92807.72;;;9.44;66.65
64402;BME280;50724;42.376;23.768;2023-03-04T14:40:51;92811.16;;;9.44;67.30
64402;BME280;50724;42.376;23.768;2023-03-04T14:47:05;92802.66;;;9.42;66.92
64402;BME280;50724;42.376;23.768;2023-03-04T14:50:17;92801.88;;;9.26;66.32
64402;BME280;50724;42.376;23.768;2023-03-04T14:53:21;92796.19;;;9.14;67.21
64402;BME280;50724;42.376;23.768;2023-03-04T14:56:29;92793.41;;;9.08;66.35
64402;BME280;50724;42.376;23.768;2023-03-04T14:59:34;92794.06;;;9.02;65.87
64402;BME280;50724;42.376;23.768;2023-03-04T15:02:37;92789.03;;;9.00;66.78
64402;BME280;50724;42.376;23.768;2023-03-04T15:05:38;92785.75;;;8.98;67.37
64402;BME280;50724;42.376;23.768;2023-03-04T15:08:40;92781.53;;;8.65;68.36
64402;BME280;50724;42.376;23.768;2023-03-04T15:11:45;92784.59;;;8.36;69.62
64402;BME280;50724;42.376;23.768;2023-03-04T15:14:51;92776.44;;;8.31;69.97
64402;BME280;50724;42.376;23.768;2023-03-04T15:18:22;92786.50;;;8.18;70.41
64402;BME280;50724;42.376;23.768;2023-03-04T15:24:31;92785.97;;;7.64;73.79
64402;BME280;50724;42.376;23.768;2023-03-04T15:27:31;92784.84;;;7.67;72.02
64402;BME280;50724;42.376;23.768;2023-03-04T15:30:33;92787.09;;;7.54;72.67
64402;BME280;50724;42.376;23.768;2023-03-04T15:33:33;92779.00;;;7.31;73.22
64402;BME280;50724;42.376;23.768;2023-03-04T15:36:33;92775.28;;;7.08;76.62
64402;BME280;50724;42.376;23.768;2023-03-04T15:39:34;92777.47;;;6.52;79.38
64402;BME280;50724;42.376;23.768;2023-03-04T15:42:34;92774.03;;;6.26;81.72
64402;BME280;50724;42.376;23.768;2023-03-04T15:45:36;92766.00;;;6.01;83.45
64402;BME280;50724;42.376;23.768;2023-03-04T15:48:37;92764.72;;;5.88;83.08
64402;BME280;50724;42.376;23.768;2023-03-04T15:51:38;92764.97;;;5.67;84.31
64402;BME280;50724;42.376;23.768;2023-03-04T15:54:38;92764.91;;;5.49;85.08
64402;BME280;50724;42.376;23.768;2023-03-04T15:57:39;92766.72;;;5.39;85.84
64402;BME280;50724;42.376;23.768;2023-03-04T16:00:39;92766.53;;;5.23;86.93
64402;BME280;50724;42.376;23.768;2023-03-04T16:03:40;92768.91;;;5.07;87.45
64402;BME280;50724;42.376;23.768;2023-03-04T16:06:42;92767.34;;;4.97;88.01
64402;BME280;50724;42.376;23.768;2023-03-04T16:09:44;92763.94;;;4.86;89.26
64402;BME280;50724;42.376;23.768;2023-03-04T16:12:45;92763.03;;;4.78;91.80
64402;BME280;50724;42.376;23.768;2023-03-04T16:15:46;92768.91;;;4.61;91.70
64402;BME280;50724;42.376;23.768;2023-03-04T16:18:46;92761.00;;;4.53;90.85
64402;BME280;50724;42.376;23.768;2023-03-04T16:21:47;92749.72;;;4.35;93.07
64402;BME280;50724;42.376;23.768;2023-03-04T16:24:47;92755.75;;;4.06;96.36
64402;BME280;50724;42.376;23.768;2023-03-04T16:27:50;92751.66;;;4.13;96.67
64402;BME280;50724;42.376;23.768;2023-03-04T16:30:51;92753.69;;;3.81;98.34
64402;BME280;50724;42.376;23.768;2023-03-04T16:33:51;92762.13;;;3.74;100.00
64402;BME280;50724;42.376;23.768;2023-03-04T16:36:52;92772.38;;;3.35;100.00
64402;BME280;50724;42.376;23.768;2023-03-04T16:39:52;92775.69;;;3.57;100.00
64402;BME280;50724;42.376;23.768;2023-03-04T16:42:53;92777.06;;;3.61;100.00
64402;BME280;50724;42.376;23.768;2023-03-04T16:45:54;92778.31;;;3.76;100.00
64402;BME280;50724;42.376;23.768;2023-03-04T16:48:54;92778.31;;;3.76;99.57
64402;BME280;50724;42.376;23.768;2023-03-04T16:51:54;92777.78;;;3.82;100.00
64402;BME280;50724;42.376;23.768;2023-03-04T16:54:56;92778.91;;;3.98;100.00
64402;BME280;50724;42.376;23.768;2023-03-04T16:57:57;92779.56;;;4.00;100.00
64402;BME280;50724;42.376;23.768;2023-03-04T17:00:58;92777.94;;;3.99;100.00
64402;BME280;50724;42.376;23.768;2023-03-04T17:03:59;92775.63;;;4.15;100.00
64402;BME280;50724;42.376;23.768;2023-03-04T17:07:00;92779.28;;;4.23;100.00
64402;BME280;50724;42.376;23.768;2023-03-04T17:10:00;92773.03;;;4.15;100.00
64402;BME280;50724;42.376;23.768;2023-03-04T17:13:00;92768.94;;;4.13;100.00
64402;BME280;50724;42.376;23.768;2023-03-04T17:16:10;92785.03;;;4.07;100.00
64402;BME280;50724;42.376;23.768;2023-03-04T17:19:11;92773.03;;;4.06;100.00
64402;BME280;50724;42.376;23.768;2023-03-04T17:22:11;92785.28;;;4.04;100.00
64402;BME280;50724;42.376;23.768;2023-03-04T17:25:12;92781.09;;;4.12;100.00
64402;BME280;50724;42.376;23.768;2023-03-04T17:28:12;92777.13;;;4.08;100.00
64402;BME280;50724;42.376;23.768;2023-03-04T17:31:15;92781.34;;;3.90;100.00
64402;BME280;50724;42.376;23.768;2023-03-04T17:34:17;92779.56;;;4.00;100.00
64402;BME280;50724;42.376;23.768;2023-03-04T17:37:18;92779.56;;;3.91;100.00
64402;BME280;50724;42.376;23.768;2023-03-04T17:40:18;92781.88;;;4.03;100.00
64402;BME280;50724;42.376;23.768;2023-03-04T17:43:19;92775.75;;;3.85;100.00